• Join FlightAware (Why Join?)
  • Login
  • US Flag 
02:55PM EDT


 

Airport Tracker/Info


-or-


 

Live Flight TrackerFlight Track Log ✈ N600AJ ✈ 20-Oct-2013 ✈ KTEB - KROC

Flight Track Log - Related Links

Times and Time Zones

All times are in EDT time to prevent confusion due to time zone crossing. See the N600AJ flight status page for this flight to view local times or setup timezone preferences in your user account.

Time Position Orientation Groundspeed Altitude Reporting Facility
EDT Latitude Longitude Course Direction KTS MPH feet Rate Location/Type
07:23PM 40.8167 -74.1500 309° West 193 222 1,900  Level New York TRACON
07:24PM 40.7833 -74.2333 242° Southwest 212 244 8,200 4,080 Climbing New York TRACON
07:25PM 40.8000 -74.3167 285° West 270 311 10,100 1,440 Climbing New York TRACON
07:26PM 40.8667 -74.3667 330° Northwest 326 375 11,000 600 Climbing New York TRACON
07:26PM 40.9328 -74.4047 336° Northwest 353 406 11,100 60 Climbing New York Center
07:27PM 41.0256 -74.4347 346° North 393 452 11,100  Level New York Center
07:28PM 41.1932 -74.5796 309° West  Level Estimated
07:28PM 41.1217 -74.3544 32° Northeast 427 491 11,100  Level New York Center
07:29PM 41.2161 -74.2656 35° Northeast 421 484 11,100 1,200 Level New York Center
07:30PM 41.2961 -74.3031 341° North 329 379 13,500 2,400 Climbing New York Center
07:31PM 41.3031 -74.4167 275° West 238 274 16,000 2,400 Climbing New York Center
07:32PM 41.3636 -74.5469 302° West 341 392 18,400 2,220 Climbing New York Center
07:33PM 41.4222 -74.6692 303° West 388 447 20,500 1,800 Climbing New York Center
07:34PM 41.4828 -74.7892 304° West 396 456 22,000 720 Climbing New York Center
07:35PM 41.5428 -74.9147 303° West 401 461 22,000  Level New York Center
07:36PM 41.6050 -75.0406 304° West 406 467 22,000  Level New York Center
07:37PM 41.6672 -75.1667 303° West 406 467 22,000  Level New York Center
07:38PM 41.7269 -75.2900 303° West 406 467 22,000  Level New York Center
07:39PM 41.7867 -75.4164 302° West 406 467 22,000  Level New York Center
07:40PM 41.8483 -75.5433 303° West 406 467 22,000  Level New York Center
07:41PM 41.9097 -75.6703 303° West 406 467 22,000  Level New York Center
07:42PM 41.9689 -75.7975 302° West 406 467 22,000  Level New York Center
07:43PM 42.0300 -75.9250 303° West 406 467 22,000  Level New York Center
07:44PM 42.0869 -76.0522 301° West 406 467 22,000 -540 Level New York Center
07:45PM 42.1478 -76.1803 303° West 406 467 21,000 -1,020 Descending New York Center
07:46PM 42.2044 -76.3053 301° West 401 461 20,000 -960 Descending New York Center
07:48PM 42.2914 -76.4844 303° West 402 463 18,700 -900 Descending Cleveland Center
07:49PM 42.3508 -76.6122 302° West 402 463 17,800 -960 Descending Cleveland Center
07:50PM 42.4092 -76.7375 302° West 398 458 16,800 -900 Descending Cleveland Center
07:51PM 42.4639 -76.8592 301° West 386 444 16,000 -540 Descending Cleveland Center
07:52PM 42.5233 -76.9919 301° West 380 437 15,800 -120 Descending Cleveland Center
07:52PM 42.5197 -76.9800 112° Southeast 380 437 15,900 -2,040 Climbing Cleveland Center
07:53PM 42.5794 -77.0606 315° West 381 438 14,400 -2,280 Descending Cleveland Center
07:53PM 42.6119 -77.0975 320° Northwest 387 445 13,600 -2,400 Descending Cleveland Center
07:54PM 42.6606 -77.1500 322° Northwest 369 425 12,000 -2,280 Descending Cleveland Center
07:54PM 42.6886 -77.1819 320° Northwest 366 421 11,300 -1,560 Descending Cleveland Center
07:55PM 42.7358 -77.2325 322° Northwest 273 314 10,300 -1,500 Descending Cleveland Center
07:55PM 42.7486 -77.2489 317° Northwest 289 333 9,800 -1,980 Descending Cleveland Center
07:56PM 42.7981 -77.3033 321° Northwest 272 313 8,100 -1,920 Descending Cleveland Center
07:56PM 42.8056 -77.3144 313° West 273 314 7,800 -1,980 Descending Cleveland Center
07:57PM 42.8531 -77.3664 321° Northwest 256 295 6,100 -1,980 Descending Cleveland Center
07:57PM 42.8608 -77.3758 318° Northwest 263 303 5,800 -1,920 Descending Cleveland Center
07:58PM 42.9100 -77.4275 322° Northwest 261 300 4,200 -2,040 Descending Cleveland Center
07:58PM 42.9297 -77.4447 327° Northwest 260 299 3,700 -1,620 Descending Cleveland Center
07:59PM 42.9717 -77.4725 334° Northwest 257 296 2,600 -1,500 Descending Cleveland Center
07:59PM 42.9939 -77.4825 342° North 257 296 2,200 -540 Descending Cleveland Center
08:00PM 43.0381 -77.4983 345° North 208 239 2,100 -120 Descending Cleveland Center
08:00PM 43.0506 -77.5064 335° Northwest 235 270 2,100  Level Cleveland Center
08:01PM 43.0892 -77.5264 339° North 195 224 2,100  Level Cleveland Center
08:01PM 43.1000 -77.5347 331° Northwest 211 243 2,100 -120 Level Cleveland Center
08:02PM 43.1247 -77.5617 322° Northwest 157 181 2,000 -420 Descending Cleveland Center
08:02PM 43.1250 -77.5794 271° West 180 207 1,700 -840 Descending Cleveland Center
08:03PM 43.1236 -77.6136 267° West 133 153 1,200 -900 Descending Cleveland Center
08:03PM 43.1222 -77.6431 266° West 150 173 800 -480 Descending Cleveland Center
08:04PM 43.1214 -77.6769 268° West 110 127 500 -300 Descending Cleveland Center
08:06PM 43.1167 -77.6667 270° West  Level FlightAware Approximate